68.2°F
Current conditions from King Hill
Updated every 5 minutes
 
  Wednesday August 27, 2014

Station Historical Data
Daily Summary for January 23, 2012 Units:  Both    English   Metric
« Previous Day
Next Day »
Daily Weekly Monthly Yearly Custom
  High: Low: Average:
Temperature: 40.7 °F /  4.8 °C 26.3 °F /  -3.2 °C 34.3 °F /  1.3 °C
Dew Point: 39.1 °F /  3.9 °C 18.0 °F /  -7.8 °C 28.3 °F /  -2.1 °C
Humidity: 94% 70% 79%
Wind Speed: 11.0mph /  17.7km/h - 5.1mph /  8.2km/h
Wind Gust: 22.0mph /  35.4km/h - -
Wind- - SSW
Pressure: 30.32 in /  1026.6 hPa 29.72 in /  1006.3 hPa -
Precipitation: 0.00 in /  0 mm    
Historical Graphs
 
 
Tabular Data for January 23, 2012
Time Temperature Dew Point Pressure Wind Wind Speed Wind Gust Humidity Daily Rainfall
00:00 26.5 °F /  -3.1 °C 18.0 °F /  -7.8 °C 30.32in /  1026.6hPa SSW 7.0mph /  11.3km/h 14.0mph /  22.5km/h 70% 0.00in /  0mm
00:05 26.6 °F /  -3 °C 18.1 °F /  -7.7 °C 30.32in /  1026.6hPa SSW 6.0mph /  9.7km/h 14.0mph /  22.5km/h 70% 0.00in /  0mm
00:10 26.9 °F /  -2.8 °C 18.4 °F /  -7.6 °C 30.31in /  1026.3hPa SSW 6.0mph /  9.7km/h 13.0mph /  20.9km/h 70% 0.00in /  0mm
00:15 26.9 °F /  -2.8 °C 18.4 °F /  -7.6 °C 30.32in /  1026.6hPa SSW 5.0mph /  8km/h 13.0mph /  20.9km/h 70% 0.00in /  0mm
00:20 26.9 °F /  -2.8 °C 18.4 °F /  -7.6 °C 30.32in /  1026.6hPa SSW 5.0mph /  8km/h 12.0mph /  19.3km/h 70% 0.00in /  0mm
00:25 26.9 °F /  -2.8 °C 18.4 °F /  -7.6 °C 30.31in /  1026.3hPa SSW 4.0mph /  6.4km/h 12.0mph /  19.3km/h 70% 0.00in /  0mm
00:30 26.8 °F /  -2.9 °C 18.3 °F /  -7.6 °C 30.31in /  1026.3hPa SSW 3.0mph /  4.8km/h 10.0mph /  16.1km/h 70% 0.00in /  0mm
00:35 26.9 °F /  -2.8 °C 18.8 °F /  -7.3 °C 30.31in /  1026.3hPa SSW 5.0mph /  8km/h 11.0mph /  17.7km/h 71% 0.00in /  0mm
00:40 26.9 °F /  -2.8 °C 18.8 °F /  -7.3 °C 30.31in /  1026.3hPa SSW 4.0mph /  6.4km/h 11.0mph /  17.7km/h 71% 0.00in /  0mm
00:45 26.9 °F /  -2.8 °C 18.8 °F /  -7.3 °C 30.31in /  1026.3hPa SSW 5.0mph /  8km/h 12.0mph /  19.3km/h 71% 0.00in /  0mm
00:55 27.1 °F /  -2.7 °C 18.9 °F /  -7.3 °C 30.30in /  1026hPa SSW 4.0mph /  6.4km/h 11.0mph /  17.7km/h 71% 0.00in /  0mm
01:00 27.3 °F /  -2.6 °C 19.5 °F /  -6.9 °C 30.30in /  1026hPa SSW 5.0mph /  8km/h 11.0mph /  17.7km/h 72% 0.00in /  0mm
01:05 27.6 °F /  -2.4 °C 19.8 °F /  -6.8 °C 30.30in /  1026hPa SSW 6.0mph /  9.7km/h 13.0mph /  20.9km/h 72% 0.00in /  0mm
01:10 27.7 °F /  -2.4 °C 19.9 °F /  -6.7 °C 30.29in /  1025.6hPa South 4.0mph /  6.4km/h 13.0mph /  20.9km/h 72% 0.00in /  0mm
01:15 27.9 °F /  -2.3 °C 20.0 °F /  -6.7 °C 30.29in /  1025.6hPa SSW 7.0mph /  11.3km/h 18.0mph /  29km/h 72% 0.00in /  0mm
01:20 28.1 °F /  -2.2 °C 20.2 °F /  -6.6 °C 30.29in /  1025.6hPa SSW 4.0mph /  6.4km/h 18.0mph /  29km/h 72% 0.00in /  0mm
01:25 28.1 °F /  -2.2 °C 20.2 °F /  -6.6 °C 30.29in /  1025.6hPa SSW 4.0mph /  6.4km/h 12.0mph /  19.3km/h 72% 0.00in /  0mm
01:30 28.3 °F /  -2.1 °C 20.4 °F /  -6.4 °C 30.29in /  1025.6hPa SSW 5.0mph /  8km/h 11.0mph /  17.7km/h 72% 0.00in /  0mm
01:35 28.4 °F /  -2 °C 20.5 °F /  -6.4 °C 30.28in /  1025.3hPa SSW 4.0mph /  6.4km/h 15.0mph /  24.1km/h 72% 0.00in /  0mm
01:40 28.4 °F /  -2 °C 20.2 °F /  -6.6 °C 30.28in /  1025.3hPa SSW 2.0mph /  3.2km/h 15.0mph /  24.1km/h 71% 0.00in /  0mm
01:45 28.6 °F /  -1.9 °C 20.7 °F /  -6.3 °C 30.28in /  1025.3hPa SSW 6.0mph /  9.7km/h 14.0mph /  22.5km/h 72% 0.00in /  0mm
01:50 28.6 °F /  -1.9 °C 20.4 °F /  -6.4 °C 30.29in /  1025.6hPa South 7.0mph /  11.3km/h 14.0mph /  22.5km/h 71% 0.00in /  0mm
01:55 28.7 °F /  -1.8 °C 20.5 °F /  -6.4 °C 30.29in /  1025.6hPa SSW 5.0mph /  8km/h 11.0mph /  17.7km/h 71% 0.00in /  0mm
02:00 28.5 °F /  -1.9 °C 20.3 °F /  -6.5 °C 30.29in /  1025.6hPa SSW 6.0mph /  9.7km/h 9.0mph /  14.5km/h 71% 0.00in /  0mm
02:05 28.4 °F /  -2 °C 20.2 °F /  -6.6 °C 30.28in /  1025.3hPa SSW 5.0mph /  8km/h 11.0mph /  17.7km/h 71% 0.00in /  0mm
02:10 28.2 °F /  -2.1 °C 20.3 °F /  -6.5 °C 30.28in /  1025.3hPa South 5.0mph /  8km/h 11.0mph /  17.7km/h 72% 0.00in /  0mm
02:15 28.1 °F /  -2.2 °C 20.2 °F /  -6.6 °C 30.29in /  1025.6hPa SW 3.0mph /  4.8km/h 11.0mph /  17.7km/h 72% 0.00in /  0mm
02:20 28.1 °F /  -2.2 °C 20.2 °F /  -6.6 °C 30.28in /  1025.3hPa SSW 4.0mph /  6.4km/h 14.0mph /  22.5km/h 72% 0.00in /  0mm
02:25 28.2 °F /  -2.1 °C 20.3 °F /  -6.5 °C 30.28in /  1025.3hPa SSW 6.0mph /  9.7km/h 14.0mph /  22.5km/h 72% 0.00in /  0mm
02:30 28.1 °F /  -2.2 °C 20.2 °F /  -6.6 °C 30.28in /  1025.3hPa SSW 3.0mph /  4.8km/h 14.0mph /  22.5km/h 72% 0.00in /  0mm
02:40 27.8 °F /  -2.3 °C 20.0 °F /  -6.7 °C 30.28in /  1025.3hPa SSW 6.0mph /  9.7km/h 11.0mph /  17.7km/h 72% 0.00in /  0mm
02:45 27.7 °F /  -2.4 °C 19.9 °F /  -6.7 °C 30.28in /  1025.3hPa SW 4.0mph /  6.4km/h 12.0mph /  19.3km/h 72% 0.00in /  0mm
02:50 27.6 °F /  -2.4 °C 19.8 °F /  -6.8 °C 30.27in /  1024.9hPa SSW 5.0mph /  8km/h 12.0mph /  19.3km/h 72% 0.00in /  0mm
02:55 27.5 °F /  -2.5 °C 19.7 °F /  -6.8 °C 30.27in /  1024.9hPa SSW 5.0mph /  8km/h 10.0mph /  16.1km/h 72% 0.00in /  0mm
03:00 27.3 °F /  -2.6 °C 19.8 °F /  -6.8 °C 30.27in /  1024.9hPa SW 6.0mph /  9.7km/h 10.0mph /  16.1km/h 73% 0.00in /  0mm
03:05 27.2 °F /  -2.7 °C 19.7 °F /  -6.8 °C 30.27in /  1024.9hPa SSW 3.0mph /  4.8km/h 11.0mph /  17.7km/h 73% 0.00in /  0mm
03:10 27.0 °F /  -2.8 °C 19.5 °F /  -6.9 °C 30.26in /  1024.6hPa SSW 3.0mph /  4.8km/h 11.0mph /  17.7km/h 73% 0.00in /  0mm
03:15 26.8 °F /  -2.9 °C 19.3 °F /  -7.1 °C 30.26in /  1024.6hPa SSW 4.0mph /  6.4km/h 8.0mph /  12.9km/h 73% 0.00in /  0mm
03:20 26.6 °F /  -3 °C 19.1 °F /  -7.2 °C 30.26in /  1024.6hPa SSW 4.0mph /  6.4km/h 8.0mph /  12.9km/h 73% 0.00in /  0mm
03:25 26.5 °F /  -3.1 °C 19.3 °F /  -7.1 °C 30.25in /  1024.3hPa SSW 3.0mph /  4.8km/h 8.0mph /  12.9km/h 74% 0.00in /  0mm
03:30 26.4 °F /  -3.1 °C 19.2 °F /  -7.1 °C 30.25in /  1024.3hPa SSW 4.0mph /  6.4km/h 8.0mph /  12.9km/h 74% 0.00in /  0mm
03:40 26.3 °F /  -3.2 °C 19.1 °F /  -7.2 °C 30.25in /  1024.3hPa South 5.0mph /  8km/h 10.0mph /  16.1km/h 74% 0.00in /  0mm
03:45 26.4 °F /  -3.1 °C 19.2 °F /  -7.1 °C 30.24in /  1023.9hPa SSW 5.0mph /  8km/h 11.0mph /  17.7km/h 74% 0.00in /  0mm
03:50 26.4 °F /  -3.1 °C 19.2 °F /  -7.1 °C 30.24in /  1023.9hPa SW 4.0mph /  6.4km/h 11.0mph /  17.7km/h 74% 0.00in /  0mm
03:55 26.4 °F /  -3.1 °C 19.2 °F /  -7.1 °C 30.24in /  1023.9hPa SSW 4.0mph /  6.4km/h 9.0mph /  14.5km/h 74% 0.00in /  0mm
04:00 26.6 °F /  -3 °C 19.4 °F /  -7 °C 30.24in /  1023.9hPa South 3.0mph /  4.8km/h 10.0mph /  16.1km/h 74% 0.00in /  0mm
04:05 26.6 °F /  -3 °C 19.4 °F /  -7 °C 30.23in /  1023.6hPa SSW 3.0mph /  4.8km/h 10.0mph /  16.1km/h 74% 0.00in /  0mm
04:10 26.7 °F /  -2.9 °C 19.8 °F /  -6.8 °C 30.23in /  1023.6hPa SW 3.0mph /  4.8km/h 8.0mph /  12.9km/h 75% 0.00in /  0mm
04:15 26.7 °F /  -2.9 °C 19.8 °F /  -6.8 °C 30.23in /  1023.6hPa SW 4.0mph /  6.4km/h 8.0mph /  12.9km/h 75% 0.00in /  0mm
04:20 26.8 °F /  -2.9 °C 19.9 °F /  -6.7 °C 30.23in /  1023.6hPa SSW 3.0mph /  4.8km/h 9.0mph /  14.5km/h 75% 0.00in /  0mm
04:25 26.9 °F /  -2.8 °C 20.0 °F /  -6.7 °C 30.23in /  1023.6hPa SSW 3.0mph /  4.8km/h 9.0mph /  14.5km/h 75% 0.00in /  0mm
04:30 27.0 °F /  -2.8 °C 20.1 °F /  -6.6 °C 30.22in /  1023.2hPa SSW 2.0mph /  3.2km/h 7.0mph /  11.3km/h 75% 0.00in /  0mm
04:40 27.4 °F /  -2.6 °C 20.5 °F /  -6.4 °C 30.23in /  1023.6hPa SSW 4.0mph /  6.4km/h 10.0mph /  16.1km/h 75% 0.00in /  0mm
04:45 27.5 °F /  -2.5 °C 20.6 °F /  -6.3 °C 30.22in /  1023.2hPa SSW 5.0mph /  8km/h 10.0mph /  16.1km/h 75% 0.00in /  0mm
04:50 27.5 °F /  -2.5 °C 20.6 °F /  -6.3 °C 30.22in /  1023.2hPa South 3.0mph /  4.8km/h 9.0mph /  14.5km/h 75% 0.00in /  0mm
04:55 27.6 °F /  -2.4 °C 20.7 °F /  -6.3 °C 30.22in /  1023.2hPa SSW 5.0mph /  8km/h 11.0mph /  17.7km/h 75% 0.00in /  0mm
05:00 27.8 °F /  -2.3 °C 20.9 °F /  -6.2 °C 30.22in /  1023.2hPa SSW 4.0mph /  6.4km/h 11.0mph /  17.7km/h 75% 0.00in /  0mm
05:05 28.0 °F /  -2.2 °C 21.1 °F /  -6.1 °C 30.22in /  1023.2hPa SSW 4.0mph /  6.4km/h 10.0mph /  16.1km/h 75% 0.00in /  0mm
05:15 28.3 °F /  -2.1 °C 21.4 °F /  -5.9 °C 30.22in /  1023.2hPa SSW 5.0mph /  8km/h 9.0mph /  14.5km/h 75% 0.00in /  0mm
05:20 28.4 °F /  -2 °C 21.5 °F /  -5.8 °C 30.21in /  1022.9hPa SSW 2.0mph /  3.2km/h 9.0mph /  14.5km/h 75% 0.00in /  0mm
05:25 28.4 °F /  -2 °C 21.5 °F /  -5.8 °C 30.21in /  1022.9hPa SSW 1.0mph /  1.6km/h 9.0mph /  14.5km/h 75% 0.00in /  0mm
05:30 28.5 °F /  -1.9 °C 21.6 °F /  -5.8 °C 30.22in /  1023.2hPa SSW 3.0mph /  4.8km/h 7.0mph /  11.3km/h 75% 0.00in /  0mm
05:35 28.6 °F /  -1.9 °C 21.7 °F /  -5.7 °C 30.21in /  1022.9hPa Calm   7.0mph /  11.3km/h 75% 0.00in /  0mm
05:40 28.5 °F /  -1.9 °C 21.6 °F /  -5.8 °C 30.21in /  1022.9hPa SSW 4.0mph /  6.4km/h 7.0mph /  11.3km/h 75% 0.00in /  0mm
05:50 28.4 °F /  -2 °C 21.5 °F /  -5.8 °C 30.20in /  1022.6hPa SSW 2.0mph /  3.2km/h 6.0mph /  9.7km/h 75% 0.00in /  0mm
06:00 28.5 °F /  -1.9 °C 21.6 °F /  -5.8 °C 30.20in /  1022.6hPa SSW 3.0mph /  4.8km/h 7.0mph /  11.3km/h 75% 0.00in /  0mm
06:05 28.5 °F /  -1.9 °C 21.6 °F /  -5.8 °C 30.20in /  1022.6hPa SSW 5.0mph /  8km/h 10.0mph /  16.1km/h 75% 0.00in /  0mm
06:10 28.6 °F /  -1.9 °C 22.0 °F /  -5.6 °C 30.19in /  1022.2hPa SSW 4.0mph /  6.4km/h 10.0mph /  16.1km/h 76% 0.00in /  0mm
06:15 28.7 °F /  -1.8 °C 22.1 °F /  -5.5 °C 30.18in /  1021.9hPa South 3.0mph /  4.8km/h 12.0mph /  19.3km/h 76% 0.00in /  0mm
06:20 28.8 °F /  -1.8 °C 22.2 °F /  -5.4 °C 30.18in /  1021.9hPa SSW 3.0mph /  4.8km/h 12.0mph /  19.3km/h 76% 0.00in /  0mm
06:25 28.9 °F /  -1.7 °C 22.3 °F /  -5.4 °C 30.18in /  1021.9hPa South 4.0mph /  6.4km/h 8.0mph /  12.9km/h 76% 0.00in /  0mm
06:30 29.1 °F /  -1.6 °C 22.5 °F /  -5.3 °C 30.18in /  1021.9hPa South 1.0mph /  1.6km/h 7.0mph /  11.3km/h 76% 0.00in /  0mm
06:35 29.4 °F /  -1.4 °C 22.8 °F /  -5.1 °C 30.18in /  1021.9hPa South 3.0mph /  4.8km/h 8.0mph /  12.9km/h 76% 0.00in /  0mm
06:45 30.1 °F /  -1.1 °C 23.5 °F /  -4.7 °C 30.18in /  1021.9hPa SSW 4.0mph /  6.4km/h 7.0mph /  11.3km/h 76% 0.00in /  0mm
06:50 30.2 °F /  -1 °C 23.6 °F /  -4.7 °C 30.18in /  1021.9hPa SSW 2.0mph /  3.2km/h 7.0mph /  11.3km/h 76% 0.00in /  0mm
06:55 30.2 °F /  -1 °C 23.6 °F /  -4.7 °C 30.17in /  1021.6hPa South 3.0mph /  4.8km/h 6.0mph /  9.7km/h 76% 0.00in /  0mm
07:00 30.2 °F /  -1 °C 23.6 °F /  -4.7 °C 30.17in /  1021.6hPa SW 3.0mph /  4.8km/h 6.0mph /  9.7km/h 76% 0.00in /  0mm
07:05 30.2 °F /  -1 °C 23.6 °F /  -4.7 °C 30.17in /  1021.6hPa Calm   6.0mph /  9.7km/h 76% 0.00in /  0mm
07:10 30.3 °F /  -0.9 °C 23.6 °F /  -4.7 °C 30.17in /  1021.6hPa SW 3.0mph /  4.8km/h 7.0mph /  11.3km/h 76% 0.00in /  0mm
07:15 30.6 °F /  -0.8 °C 23.9 °F /  -4.5 °C 30.16in /  1021.2hPa South 3.0mph /  4.8km/h 7.0mph /  11.3km/h 76% 0.00in /  0mm
07:20 30.8 °F /  -0.7 °C 24.1 °F /  -4.4 °C 30.15in /  1020.9hPa SSW 2.0mph /  3.2km/h 8.0mph /  12.9km/h 76% 0.00in /  0mm
07:25 31.0 °F /  -0.6 °C 24.3 °F /  -4.3 °C 30.15in /  1020.9hPa SSW 4.0mph /  6.4km/h 10.0mph /  16.1km/h 76% 0.00in /  0mm
07:30 31.3 °F /  -0.4 °C 24.6 °F /  -4.1 °C 30.16in /  1021.2hPa SSW 5.0mph /  8km/h 10.0mph /  16.1km/h 76% 0.00in /  0mm
07:35 31.5 °F /  -0.3 °C 24.5 °F /  -4.2 °C 30.15in /  1020.9hPa SSW 5.0mph /  8km/h 13.0mph /  20.9km/h 75% 0.00in /  0mm
07:40 31.4 °F /  -0.3 °C 24.4 °F /  -4.2 °C 30.15in /  1020.9hPa SSW 3.0mph /  4.8km/h 13.0mph /  20.9km/h 75% 0.00in /  0mm
07:50 31.0 °F /  -0.6 °C 24.0 °F /  -4.4 °C 30.14in /  1020.5hPa SSW 6.0mph /  9.7km/h 12.0mph /  19.3km/h 75% 0.00in /  0mm
07:55 31.2 °F /  -0.4 °C 24.5 °F /  -4.2 °C 30.14in /  1020.5hPa SSW 5.0mph /  8km/h 13.0mph /  20.9km/h 76% 0.00in /  0mm
08:00 31.6 °F /  -0.2 °C 24.9 °F /  -3.9 °C 30.14in /  1020.5hPa South 7.0mph /  11.3km/h 15.0mph /  24.1km/h 76% 0.00in /  0mm
08:05 31.9 °F /  -0.1 °C 24.9 °F /  -3.9 °C 30.14in /  1020.5hPa SSW 7.0mph /  11.3km/h 15.0mph /  24.1km/h 75% 0.00in /  0mm
08:15 32.3 °F /  0.2 °C 25.3 °F /  -3.7 °C 30.13in /  1020.2hPa South 6.0mph /  9.7km/h 17.0mph /  27.4km/h 75% 0.00in /  0mm
08:20 32.4 °F /  0.2 °C 25.4 °F /  -3.7 °C 30.13in /  1020.2hPa South 5.0mph /  8km/h 17.0mph /  27.4km/h 75% 0.00in /  0mm
08:25 32.4 °F /  0.2 °C 25.4 °F /  -3.7 °C 30.13in /  1020.2hPa South 5.0mph /  8km/h 15.0mph /  24.1km/h 75% 0.00in /  0mm
08:30 32.4 °F /  0.2 °C 25.4 °F /  -3.7 °C 30.14in /  1020.5hPa South 5.0mph /  8km/h 10.0mph /  16.1km/h 75% 0.00in /  0mm
08:40 32.7 °F /  0.4 °C 26.0 °F /  -3.3 °C 30.13in /  1020.2hPa SSE 2.0mph /  3.2km/h 12.0mph /  19.3km/h 76% 0.00in /  0mm
08:45 33.0 °F /  0.6 °C 26.6 °F /  -3 °C 30.13in /  1020.2hPa SSW 6.0mph /  9.7km/h 14.0mph /  22.5km/h 77% 0.00in /  0mm
08:50 33.5 °F /  0.8 °C 26.8 °F /  -2.9 °C 30.13in /  1020.2hPa SSW 4.0mph /  6.4km/h 14.0mph /  22.5km/h 76% 0.00in /  0mm
08:55 33.8 °F /  1 °C 27.0 °F /  -2.8 °C 30.14in /  1020.5hPa SSW 6.0mph /  9.7km/h 13.0mph /  20.9km/h 76% 0.00in /  0mm
09:00 34.1 °F /  1.2 °C 27.3 °F /  -2.6 °C 30.14in /  1020.5hPa SSW 5.0mph /  8km/h 12.0mph /  19.3km/h 76% 0.00in /  0mm
09:05 34.3 °F /  1.3 °C 27.2 °F /  -2.7 °C 30.13in /  1020.2hPa SSW 5.0mph /  8km/h 14.0mph /  22.5km/h 75% 0.00in /  0mm
09:10 34.4 °F /  1.3 °C 27.3 °F /  -2.6 °C 30.13in /  1020.2hPa SSW 5.0mph /  8km/h 14.0mph /  22.5km/h 75% 0.00in /  0mm
09:15 34.6 °F /  1.4 °C 27.5 °F /  -2.5 °C 30.13in /  1020.2hPa South 6.0mph /  9.7km/h 14.0mph /  22.5km/h 75% 0.00in /  0mm
09:20 35.0 °F /  1.7 °C 27.6 °F /  -2.4 °C 30.13in /  1020.2hPa SSW 7.0mph /  11.3km/h 17.0mph /  27.4km/h 74% 0.00in /  0mm
09:25 35.1 °F /  1.7 °C 27.7 °F /  -2.4 °C 30.14in /  1020.5hPa South 5.0mph /  8km/h 17.0mph /  27.4km/h 74% 0.00in /  0mm
09:30 35.4 °F /  1.9 °C 27.9 °F /  -2.3 °C 30.14in /  1020.5hPa SSW 7.0mph /  11.3km/h 16.0mph /  25.7km/h 74% 0.00in /  0mm
09:35 35.7 °F /  2.1 °C 28.2 °F /  -2.1 °C 30.14in /  1020.5hPa SSW 7.0mph /  11.3km/h 12.0mph /  19.3km/h 74% 0.00in /  0mm
09:40 35.9 °F /  2.2 °C 28.4 °F /  -2 °C 30.14in /  1020.5hPa SSW 7.0mph /  11.3km/h 18.0mph /  29km/h 74% 0.00in /  0mm
09:50 35.9 °F /  2.2 °C 28.4 °F /  -2 °C 30.14in /  1020.5hPa South 5.0mph /  8km/h 12.0mph /  19.3km/h 74% 0.00in /  0mm
09:55 35.7 °F /  2.1 °C 28.2 °F /  -2.1 °C 30.14in /  1020.5hPa SSW 8.0mph /  12.9km/h 17.0mph /  27.4km/h 74% 0.00in /  0mm
10:00 35.7 °F /  2.1 °C 28.2 °F /  -2.1 °C 30.14in /  1020.5hPa South 8.0mph /  12.9km/h 17.0mph /  27.4km/h 74% 0.00in /  0mm
10:05 35.6 °F /  2 °C 28.1 °F /  -2.2 °C 30.14in /  1020.5hPa South 5.0mph /  8km/h 16.0mph /  25.7km/h 74% 0.00in /  0mm
10:10 35.9 °F /  2.2 °C 28.4 °F /  -2 °C 30.14in /  1020.5hPa South 7.0mph /  11.3km/h 16.0mph /  25.7km/h 74% 0.00in /  0mm
10:15 36.2 °F /  2.3 °C 29.0 °F /  -1.7 °C 30.13in /  1020.2hPa SSW 8.0mph /  12.9km/h 16.0mph /  25.7km/h 75% 0.00in /  0mm
10:20 36.6 °F /  2.6 °C 29.1 °F /  -1.6 °C 30.13in /  1020.2hPa South 8.0mph /  12.9km/h 17.0mph /  27.4km/h 74% 0.00in /  0mm
10:25 36.9 °F /  2.7 °C 29.1 °F /  -1.6 °C 30.13in /  1020.2hPa SSW 9.0mph /  14.5km/h 21.0mph /  33.8km/h 73% 0.00in /  0mm
10:30 37.0 °F /  2.8 °C 29.2 °F /  -1.6 °C 30.13in /  1020.2hPa SSW 10.0mph /  16.1km/h 21.0mph /  33.8km/h 73% 0.00in /  0mm
10:35 36.9 °F /  2.7 °C 28.7 °F /  -1.8 °C 30.13in /  1020.2hPa SSW 10.0mph /  16.1km/h 21.0mph /  33.8km/h 72% 0.00in /  0mm
10:40 37.0 °F /  2.8 °C 29.2 °F /  -1.6 °C 30.13in /  1020.2hPa South 6.0mph /  9.7km/h 21.0mph /  33.8km/h 73% 0.00in /  0mm
10:45 37.1 °F /  2.8 °C 29.3 °F /  -1.5 °C 30.12in /  1019.9hPa SSW 9.0mph /  14.5km/h 17.0mph /  27.4km/h 73% 0.00in /  0mm
10:50 37.0 °F /  2.8 °C 29.2 °F /  -1.6 °C 30.13in /  1020.2hPa SSW 6.0mph /  9.7km/h 21.0mph /  33.8km/h 73% 0.00in /  0mm
10:55 37.0 °F /  2.8 °C 29.2 °F /  -1.6 °C 30.12in /  1019.9hPa SSW 6.0mph /  9.7km/h 21.0mph /  33.8km/h 73% 0.00in /  0mm
11:05 36.8 °F /  2.7 °C 29.0 °F /  -1.7 °C 30.12in /  1019.9hPa SSW 5.0mph /  8km/h 16.0mph /  25.7km/h 73% 0.00in /  0mm
11:10 36.6 °F /  2.6 °C 29.1 °F /  -1.6 °C 30.12in /  1019.9hPa SSW 8.0mph /  12.9km/h 16.0mph /  25.7km/h 74% 0.00in /  0mm
11:15 36.7 °F /  2.6 °C 29.2 °F /  -1.6 °C 30.11in /  1019.5hPa SSW 8.0mph /  12.9km/h 16.0mph /  25.7km/h 74% 0.00in /  0mm
11:20 36.8 °F /  2.7 °C 29.3 °F /  -1.5 °C 30.11in /  1019.5hPa SSW 8.0mph /  12.9km/h 16.0mph /  25.7km/h 74% 0.00in /  0mm
11:25 37.0 °F /  2.8 °C 29.5 °F /  -1.4 °C 30.10in /  1019.2hPa South 10.0mph /  16.1km/h 17.0mph /  27.4km/h 74% 0.00in /  0mm
11:30 37.3 °F /  2.9 °C 29.8 °F /  -1.2 °C 30.09in /  1018.8hPa South 7.0mph /  11.3km/h 17.0mph /  27.4km/h 74% 0.00in /  0mm
11:35 37.7 °F /  3.2 °C 29.8 °F /  -1.2 °C 30.08in /  1018.5hPa SSW 7.0mph /  11.3km/h 15.0mph /  24.1km/h 73% 0.00in /  0mm
11:40 37.9 °F /  3.3 °C 30.4 °F /  -0.9 °C 30.08in /  1018.5hPa SSW 11.0mph /  17.7km/h 22.0mph /  35.4km/h 74% 0.00in /  0mm
11:45 38.0 °F /  3.3 °C 30.1 °F /  -1.1 °C 30.08in /  1018.5hPa SSW 8.0mph /  12.9km/h 22.0mph /  35.4km/h 73% 0.00in /  0mm
11:50 37.7 °F /  3.2 °C 29.8 °F /  -1.2 °C 30.08in /  1018.5hPa SSW 8.0mph /  12.9km/h 21.0mph /  33.8km/h 73% 0.00in /  0mm
11:55 37.6 °F /  3.1 °C 29.7 °F /  -1.3 °C 30.08in /  1018.5hPa SSW 8.0mph /  12.9km/h 21.0mph /  33.8km/h 73% 0.00in /  0mm
12:00 37.5 °F /  3.1 °C 29.6 °F /  -1.3 °C 30.07in /  1018.2hPa SSW 6.0mph /  9.7km/h 20.0mph /  32.2km/h 73% 0.00in /  0mm
12:05 37.2 °F /  2.9 °C 29.3 °F /  -1.5 °C 30.07in /  1018.2hPa SW 9.0mph /  14.5km/h 18.0mph /  29km/h 73% 0.00in /  0mm
12:10 37.0 °F /  2.8 °C 29.5 °F /  -1.4 °C 30.07in /  1018.2hPa SSW 10.0mph /  16.1km/h 18.0mph /  29km/h 74% 0.00in /  0mm
12:20 37.3 °F /  2.9 °C 29.8 °F /  -1.2 °C 30.05in /  1017.5hPa SW 10.0mph /  16.1km/h 18.0mph /  29km/h 74% 0.00in /  0mm
12:25 37.5 °F /  3.1 °C 30.0 °F /  -1.1 °C 30.05in /  1017.5hPa SSW 9.0mph /  14.5km/h 19.0mph /  30.6km/h 74% 0.00in /  0mm
12:35 37.7 °F /  3.2 °C 30.2 °F /  -1 °C 30.04in /  1017.2hPa SSW 8.0mph /  12.9km/h 15.0mph /  24.1km/h 74% 0.00in /  0mm
12:40 37.9 °F /  3.3 °C 30.4 °F /  -0.9 °C 30.04in /  1017.2hPa SSW 5.0mph /  8km/h 16.0mph /  25.7km/h 74% 0.00in /  0mm
12:45 38.0 °F /  3.3 °C 30.5 °F /  -0.8 °C 30.03in /  1016.8hPa SSW 6.0mph /  9.7km/h 16.0mph /  25.7km/h 74% 0.00in /  0mm
12:50 38.1 °F /  3.4 °C 30.6 °F /  -0.8 °C 30.03in /  1016.8hPa SSW 7.0mph /  11.3km/h 17.0mph /  27.4km/h 74% 0.00in /  0mm
12:55 38.1 °F /  3.4 °C 30.9 °F /  -0.6 °C 30.03in /  1016.8hPa SSW 9.0mph /  14.5km/h 20.0mph /  32.2km/h 75% 0.00in /  0mm
13:00 38.0 °F /  3.3 °C 30.8 °F /  -0.7 °C 30.03in /  1016.8hPa SSW 9.0mph /  14.5km/h 22.0mph /  35.4km/h 75% 0.00in /  0mm
13:05 37.8 °F /  3.2 °C 30.6 °F /  -0.8 °C 30.03in /  1016.8hPa SW 9.0mph /  14.5km/h 22.0mph /  35.4km/h 75% 0.00in /  0mm
13:15 37.3 °F /  2.9 °C 30.4 °F /  -0.9 °C 30.02in /  1016.5hPa SSW 7.0mph /  11.3km/h 15.0mph /  24.1km/h 76% 0.00in /  0mm
13:20 37.3 °F /  2.9 °C 30.4 °F /  -0.9 °C 30.02in /  1016.5hPa SSW 9.0mph /  14.5km/h 15.0mph /  24.1km/h 76% 0.00in /  0mm
13:25 37.2 °F /  2.9 °C 30.3 °F /  -0.9 °C 30.01in /  1016.1hPa South 6.0mph /  9.7km/h 15.0mph /  24.1km/h 76% 0.00in /  0mm
13:35 37.4 °F /  3 °C 30.9 °F /  -0.6 °C 30.01in /  1016.1hPa SSW 6.0mph /  9.7km/h 14.0mph /  22.5km/h 77% 0.00in /  0mm
13:40 37.6 °F /  3.1 °C 30.7 °F /  -0.7 °C 30.01in /  1016.1hPa SSW 7.0mph /  11.3km/h 14.0mph /  22.5km/h 76% 0.00in /  0mm
13:50 37.9 °F /  3.3 °C 31.0 °F /  -0.6 °C 30.00in /  1015.8hPa South 6.0mph /  9.7km/h 13.0mph /  20.9km/h 76% 0.00in /  0mm
13:55 38.1 °F /  3.4 °C 31.2 °F /  -0.4 °C 29.99in /  1015.5hPa SSW 5.0mph /  8km/h 13.0mph /  20.9km/h 76% 0.00in /  0mm
14:00 38.3 °F /  3.5 °C 31.4 °F /  -0.3 °C 29.99in /  1015.5hPa South 8.0mph /  12.9km/h 16.0mph /  25.7km/h 76% 0.00in /  0mm
14:05 38.2 °F /  3.4 °C 31.3 °F /  -0.4 °C 29.99in /  1015.5hPa SSW 5.0mph /  8km/h 16.0mph /  25.7km/h 76% 0.00in /  0mm
14:10 38.0 °F /  3.3 °C 31.1 °F /  -0.5 °C 29.99in /  1015.5hPa SSW 6.0mph /  9.7km/h 15.0mph /  24.1km/h 76% 0.00in /  0mm
14:15 37.9 °F /  3.3 °C 31.0 °F /  -0.6 °C 29.98in /  1015.1hPa SSW 5.0mph /  8km/h 15.0mph /  24.1km/h 76% 0.00in /  0mm
14:20 37.9 °F /  3.3 °C 31.0 °F /  -0.6 °C 29.97in /  1014.8hPa SSW 6.0mph /  9.7km/h 16.0mph /  25.7km/h 76% 0.00in /  0mm
14:25 38.1 °F /  3.4 °C 31.2 °F /  -0.4 °C 29.97in /  1014.8hPa South 4.0mph /  6.4km/h 16.0mph /  25.7km/h 76% 0.00in /  0mm
14:30 38.0 °F /  3.3 °C 31.1 °F /  -0.5 °C 29.96in /  1014.4hPa SSW 7.0mph /  11.3km/h 13.0mph /  20.9km/h 76% 0.00in /  0mm
14:40 37.9 °F /  3.3 °C 31.0 °F /  -0.6 °C 29.96in /  1014.4hPa SSW 4.0mph /  6.4km/h 14.0mph /  22.5km/h 76% 0.00in /  0mm
14:50 38.0 °F /  3.3 °C 31.4 °F /  -0.3 °C 29.96in /  1014.4hPa SSW 3.0mph /  4.8km/h 10.0mph /  16.1km/h 77% 0.00in /  0mm
14:55 38.0 °F /  3.3 °C 31.4 °F /  -0.3 °C 29.95in /  1014.1hPa SSW 6.0mph /  9.7km/h 11.0mph /  17.7km/h 77% 0.00in /  0mm
15:00 37.9 °F /  3.3 °C 31.3 °F /  -0.4 °C 29.95in /  1014.1hPa SSW 5.0mph /  8km/h 11.0mph /  17.7km/h 77% 0.00in /  0mm
15:05 37.9 °F /  3.3 °C 31.3 °F /  -0.4 °C 29.95in /  1014.1hPa SSW 4.0mph /  6.4km/h 9.0mph /  14.5km/h 77% 0.00in /  0mm
15:10 37.8 °F /  3.2 °C 31.2 °F /  -0.4 °C 29.95in /  1014.1hPa SSW 5.0mph /  8km/h 10.0mph /  16.1km/h 77% 0.00in /  0mm
15:15 37.8 °F /  3.2 °C 31.2 °F /  -0.4 °C 29.95in /  1014.1hPa SSW 5.0mph /  8km/h 10.0mph /  16.1km/h 77% 0.00in /  0mm
15:20 37.7 °F /  3.2 °C 31.1 °F /  -0.5 °C 29.95in /  1014.1hPa SSW 5.0mph /  8km/h 10.0mph /  16.1km/h 77% 0.00in /  0mm
15:25 37.7 °F /  3.2 °C 31.1 °F /  -0.5 °C 29.95in /  1014.1hPa SSW 6.0mph /  9.7km/h 10.0mph /  16.1km/h 77% 0.00in /  0mm
15:35 37.5 °F /  3.1 °C 31.3 °F /  -0.4 °C 29.94in /  1013.8hPa SSW 6.0mph /  9.7km/h 9.0mph /  14.5km/h 78% 0.00in /  0mm
15:40 37.4 °F /  3 °C 31.2 °F /  -0.4 °C 29.94in /  1013.8hPa SSW 5.0mph /  8km/h 9.0mph /  14.5km/h 78% 0.00in /  0mm
15:50 37.3 °F /  2.9 °C 31.1 °F /  -0.5 °C 29.93in /  1013.4hPa South 4.0mph /  6.4km/h 10.0mph /  16.1km/h 78% 0.00in /  0mm
15:55 37.2 °F /  2.9 °C 31.3 °F /  -0.4 °C 29.93in /  1013.4hPa SSW 4.0mph /  6.4km/h 9.0mph /  14.5km/h 79% 0.00in /  0mm
16:00 37.1 °F /  2.8 °C 31.2 °F /  -0.4 °C 29.93in /  1013.4hPa SSW 5.0mph /  8km/h 9.0mph /  14.5km/h 79% 0.00in /  0mm
16:05 37.0 °F /  2.8 °C 31.1 °F /  -0.5 °C 29.93in /  1013.4hPa SW 3.0mph /  4.8km/h 8.0mph /  12.9km/h 79% 0.00in /  0mm
16:10 36.9 °F /  2.7 °C 31.0 °F /  -0.6 °C 29.92in /  1013.1hPa SSW 5.0mph /  8km/h 9.0mph /  14.5km/h 79% 0.00in /  0mm
16:15 36.8 °F /  2.7 °C 30.9 °F /  -0.6 °C 29.92in /  1013.1hPa SSW 1.0mph /  1.6km/h 9.0mph /  14.5km/h 79% 0.00in /  0mm
16:20 36.8 °F /  2.7 °C 31.2 °F /  -0.4 °C 29.91in /  1012.8hPa SSW 2.0mph /  3.2km/h 7.0mph /  11.3km/h 80% 0.00in /  0mm
16:25 36.8 °F /  2.7 °C 31.2 °F /  -0.4 °C 29.91in /  1012.8hPa SSW 3.0mph /  4.8km/h 7.0mph /  11.3km/h 80% 0.00in /  0mm
16:30 36.8 °F /  2.7 °C 31.5 °F /  -0.3 °C 29.91in /  1012.8hPa SSW 5.0mph /  8km/h 11.0mph /  17.7km/h 81% 0.00in /  0mm
16:40 36.9 °F /  2.7 °C 31.9 °F /  -0.1 °C 29.90in /  1012.4hPa South 2.0mph /  3.2km/h 7.0mph /  11.3km/h 82% 0.00in /  0mm
16:45 36.9 °F /  2.7 °C 32.2 °F /  0.1 °C 29.90in /  1012.4hPa SSW 1.0mph /  1.6km/h 7.0mph /  11.3km/h 83% 0.00in /  0mm
16:50 36.8 °F /  2.7 °C 32.4 °F /  0.2 °C 29.90in /  1012.4hPa SSW 2.0mph /  3.2km/h 6.0mph /  9.7km/h 84% 0.00in /  0mm
16:55 36.7 °F /  2.6 °C 32.3 °F /  0.2 °C 29.90in /  1012.4hPa SSW 1.0mph /  1.6km/h 6.0mph /  9.7km/h 84% 0.00in /  0mm
17:00 36.6 °F /  2.6 °C 32.2 °F /  0.1 °C 29.89in /  1012.1hPa SSW 1.0mph /  1.6km/h 6.0mph /  9.7km/h 84% 0.00in /  0mm
17:05 36.5 °F /  2.5 °C 32.4 °F /  0.2 °C 29.88in /  1011.7hPa SSW 3.0mph /  4.8km/h 6.0mph /  9.7km/h 85% 0.00in /  0mm
17:10 36.7 °F /  2.6 °C 32.6 °F /  0.3 °C 29.88in /  1011.7hPa SSW 2.0mph /  3.2km/h 7.0mph /  11.3km/h 85% 0.00in /  0mm
17:15 37.0 °F /  2.8 °C 33.2 °F /  0.7 °C 29.88in /  1011.7hPa South 5.0mph /  8km/h 9.0mph /  14.5km/h 86% 0.00in /  0mm
17:20 37.3 °F /  2.9 °C 33.5 °F /  0.8 °C 29.88in /  1011.7hPa South 3.0mph /  4.8km/h 9.0mph /  14.5km/h 86% 0.00in /  0mm
17:25 37.4 °F /  3 °C 33.6 °F /  0.9 °C 29.88in /  1011.7hPa SSW 1.0mph /  1.6km/h 5.0mph /  8km/h 86% 0.00in /  0mm
17:35 37.7 °F /  3.2 °C 33.6 °F /  0.9 °C 29.87in /  1011.4hPa South 2.0mph /  3.2km/h 8.0mph /  12.9km/h 85% 0.00in /  0mm
17:40 37.7 °F /  3.2 °C 33.9 °F /  1.1 °C 29.87in /  1011.4hPa South 4.0mph /  6.4km/h 9.0mph /  14.5km/h 86% 0.00in /  0mm
17:45 37.8 °F /  3.2 °C 34.0 °F /  1.1 °C 29.87in /  1011.4hPa SSW 5.0mph /  8km/h 9.0mph /  14.5km/h 86% 0.00in /  0mm
17:50 37.8 °F /  3.2 °C 34.0 °F /  1.1 °C 29.86in /  1011.1hPa South 5.0mph /  8km/h 9.0mph /  14.5km/h 86% 0.00in /  0mm
17:55 37.9 °F /  3.3 °C 34.1 °F /  1.2 °C 29.86in /  1011.1hPa SSW 5.0mph /  8km/h 9.0mph /  14.5km/h 86% 0.00in /  0mm
18:00 38.1 °F /  3.4 °C 34.3 °F /  1.3 °C 29.85in /  1010.7hPa South 5.0mph /  8km/h 10.0mph /  16.1km/h 86% 0.00in /  0mm
18:05 38.3 °F /  3.5 °C 34.5 °F /  1.4 °C 29.84in /  1010.4hPa SSW 6.0mph /  9.7km/h 13.0mph /  20.9km/h 86% 0.00in /  0mm
18:10 38.5 °F /  3.6 °C 35.0 °F /  1.7 °C 29.84in /  1010.4hPa South 5.0mph /  8km/h 13.0mph /  20.9km/h 87% 0.00in /  0mm
18:15 38.5 °F /  3.6 °C 34.7 °F /  1.5 °C 29.84in /  1010.4hPa South 2.0mph /  3.2km/h 10.0mph /  16.1km/h 86% 0.00in /  0mm
18:20 38.4 °F /  3.6 °C 34.6 °F /  1.4 °C 29.83in /  1010hPa South 4.0mph /  6.4km/h 9.0mph /  14.5km/h 86% 0.00in /  0mm
18:25 38.5 °F /  3.6 °C 34.7 °F /  1.5 °C 29.83in /  1010hPa SSW 4.0mph /  6.4km/h 10.0mph /  16.1km/h 86% 0.00in /  0mm
18:30 38.8 °F /  3.8 °C 35.3 °F /  1.8 °C 29.83in /  1010hPa SSW 6.0mph /  9.7km/h 10.0mph /  16.1km/h 87% 0.00in /  0mm
18:35 39.0 °F /  3.9 °C 35.2 °F /  1.8 °C 29.82in /  1009.7hPa South 5.0mph /  8km/h 10.0mph /  16.1km/h 86% 0.00in /  0mm
18:40 39.3 °F /  4.1 °C 35.5 °F /  1.9 °C 29.81in /  1009.4hPa South 6.0mph /  9.7km/h 10.0mph /  16.1km/h 86% 0.00in /  0mm
18:45 39.7 °F /  4.3 °C 35.9 °F /  2.2 °C 29.81in /  1009.4hPa South 6.0mph /  9.7km/h 11.0mph /  17.7km/h 86% 0.00in /  0mm
18:55 39.9 °F /  4.4 °C 35.8 °F /  2.1 °C 29.81in /  1009.4hPa South 5.0mph /  8km/h 13.0mph /  20.9km/h 85% 0.00in /  0mm
19:00 40.0 °F /  4.4 °C 35.9 °F /  2.2 °C 29.81in /  1009.4hPa South 7.0mph /  11.3km/h 11.0mph /  17.7km/h 85% 0.00in /  0mm
19:10 39.9 °F /  4.4 °C 35.8 °F /  2.1 °C 29.80in /  1009hPa SSW 5.0mph /  8km/h 11.0mph /  17.7km/h 85% 0.00in /  0mm
19:15 39.8 °F /  4.3 °C 35.7 °F /  2.1 °C 29.80in /  1009hPa SSW 4.0mph /  6.4km/h 11.0mph /  17.7km/h 85% 0.00in /  0mm
19:20 39.8 °F /  4.3 °C 35.7 °F /  2.1 °C 29.80in /  1009hPa SSW 4.0mph /  6.4km/h 11.0mph /  17.7km/h 85% 0.00in /  0mm
19:25 39.6 °F /  4.2 °C 35.5 °F /  1.9 °C 29.81in /  1009.4hPa SSW 5.0mph /  8km/h 11.0mph /  17.7km/h 85% 0.00in /  0mm
19:30 39.5 °F /  4.2 °C 35.4 °F /  1.9 °C 29.81in /  1009.4hPa SSW 4.0mph /  6.4km/h 9.0mph /  14.5km/h 85% 0.00in /  0mm
19:35 39.4 °F /  4.1 °C 35.6 °F /  2 °C 29.79in /  1008.7hPa SSW 5.0mph /  8km/h 15.0mph /  24.1km/h 86% 0.00in /  0mm
19:40 39.3 °F /  4.1 °C 35.5 °F /  1.9 °C 29.79in /  1008.7hPa SSW 6.0mph /  9.7km/h 15.0mph /  24.1km/h 86% 0.00in /  0mm
19:45 39.3 °F /  4.1 °C 35.8 °F /  2.1 °C 29.80in /  1009hPa SSW 5.0mph /  8km/h 15.0mph /  24.1km/h 87% 0.00in /  0mm
19:50 39.3 °F /  4.1 °C 35.8 °F /  2.1 °C 29.79in /  1008.7hPa SSW 7.0mph /  11.3km/h 14.0mph /  22.5km/h 87% 0.00in /  0mm
20:00 39.1 °F /  3.9 °C 35.6 °F /  2 °C 29.79in /  1008.7hPa SSW 7.0mph /  11.3km/h 13.0mph /  20.9km/h 87% 0.00in /  0mm
20:05 39.0 °F /  3.9 °C 35.5 °F /  1.9 °C 29.79in /  1008.7hPa SSW 6.0mph /  9.7km/h 13.0mph /  20.9km/h 87% 0.00in /  0mm
20:10 39.0 °F /  3.9 °C 35.8 °F /  2.1 °C 29.79in /  1008.7hPa SSW 5.0mph /  8km/h 11.0mph /  17.7km/h 88% 0.00in /  0mm
20:15 39.0 °F /  3.9 °C 35.8 °F /  2.1 °C 29.79in /  1008.7hPa SSW 5.0mph /  8km/h 11.0mph /  17.7km/h 88% 0.00in /  0mm
20:25 38.7 °F /  3.7 °C 35.7 °F /  2.1 °C 29.79in /  1008.7hPa SSW 6.0mph /  9.7km/h 12.0mph /  19.3km/h 89% 0.00in /  0mm
20:30 38.6 °F /  3.7 °C 35.6 °F /  2 °C 29.79in /  1008.7hPa South 4.0mph /  6.4km/h 12.0mph /  19.3km/h 89% 0.00in /  0mm
20:35 38.7 °F /  3.7 °C 35.7 °F /  2.1 °C 29.79in /  1008.7hPa SSW 5.0mph /  8km/h 10.0mph /  16.1km/h 89% 0.00in /  0mm
20:40 38.7 °F /  3.7 °C 36.0 °F /  2.2 °C 29.78in /  1008.4hPa SSW 6.0mph /  9.7km/h 12.0mph /  19.3km/h 90% 0.00in /  0mm
20:45 38.7 °F /  3.7 °C 36.0 °F /  2.2 °C 29.78in /  1008.4hPa South 5.0mph /  8km/h 12.0mph /  19.3km/h 90% 0.00in /  0mm
20:50 38.8 °F /  3.8 °C 36.1 °F /  2.3 °C 29.77in /  1008hPa South 7.0mph /  11.3km/h 13.0mph /  20.9km/h 90% 0.00in /  0mm
20:55 38.7 °F /  3.7 °C 36.3 °F /  2.4 °C 29.77in /  1008hPa SSW 7.0mph /  11.3km/h 14.0mph /  22.5km/h 91% 0.00in /  0mm
21:00 38.7 °F /  3.7 °C 36.3 °F /  2.4 °C 29.77in /  1008hPa South 7.0mph /  11.3km/h 14.0mph /  22.5km/h 91% 0.00in /  0mm
21:05 38.7 °F /  3.7 °C 36.3 °F /  2.4 °C 29.77in /  1008hPa SSW 6.0mph /  9.7km/h 12.0mph /  19.3km/h 91% 0.00in /  0mm
21:10 38.8 °F /  3.8 °C 36.4 °F /  2.4 °C 29.77in /  1008hPa South 7.0mph /  11.3km/h 14.0mph /  22.5km/h 91% 0.00in /  0mm
21:15 38.8 °F /  3.8 °C 36.4 °F /  2.4 °C 29.77in /  1008hPa South 9.0mph /  14.5km/h 15.0mph /  24.1km/h 91% 0.00in /  0mm
21:20 38.8 °F /  3.8 °C 36.4 °F /  2.4 °C 29.77in /  1008hPa South 8.0mph /  12.9km/h 17.0mph /  27.4km/h 91% 0.00in /  0mm
21:25 38.8 °F /  3.8 °C 36.4 °F /  2.4 °C 29.77in /  1008hPa SSW 7.0mph /  11.3km/h 17.0mph /  27.4km/h 91% 0.00in /  0mm
21:35 38.8 °F /  3.8 °C 36.4 °F /  2.4 °C 29.76in /  1007.7hPa South 8.0mph /  12.9km/h 14.0mph /  22.5km/h 91% 0.00in /  0mm
21:45 38.9 °F /  3.8 °C 36.5 °F /  2.5 °C 29.76in /  1007.7hPa SSW 2.0mph /  3.2km/h 12.0mph /  19.3km/h 91% 0.00in /  0mm
21:55 38.9 °F /  3.8 °C 36.5 °F /  2.5 °C 29.75in /  1007.3hPa SW 2.0mph /  3.2km/h 11.0mph /  17.7km/h 91% 0.00in /  0mm
22:00 38.9 °F /  3.8 °C 36.5 °F /  2.5 °C 29.75in /  1007.3hPa Calm   11.0mph /  17.7km/h 91% 0.00in /  0mm
22:05 38.8 °F /  3.8 °C 36.4 °F /  2.4 °C 29.75in /  1007.3hPa Calm   7.0mph /  11.3km/h 91% 0.00in /  0mm
22:10 38.8 °F /  3.8 °C 36.4 °F /  2.4 °C 29.75in /  1007.3hPa Calm   4.0mph /  6.4km/h 91% 0.00in /  0mm
22:15 38.9 °F /  3.8 °C 36.5 °F /  2.5 °C 29.75in /  1007.3hPa Calm   3.0mph /  4.8km/h 91% 0.00in /  0mm
22:20 39.0 °F /  3.9 °C 36.6 °F /  2.6 °C 29.75in /  1007.3hPa Calm   6.0mph /  9.7km/h 91% 0.00in /  0mm
22:25 39.2 °F /  4 °C 37.1 °F /  2.8 °C 29.74in /  1007hPa South 4.0mph /  6.4km/h 8.0mph /  12.9km/h 92% 0.00in /  0mm
22:30 39.2 °F /  4 °C 37.1 °F /  2.8 °C 29.75in /  1007.3hPa South 1.0mph /  1.6km/h 8.0mph /  12.9km/h 92% 0.00in /  0mm
22:35 39.1 °F /  3.9 °C 37.0 °F /  2.8 °C 29.74in /  1007hPa South 3.0mph /  4.8km/h 6.0mph /  9.7km/h 92% 0.00in /  0mm
22:40 39.1 °F /  3.9 °C 37.0 °F /  2.8 °C 29.74in /  1007hPa South 5.0mph /  8km/h 9.0mph /  14.5km/h 92% 0.00in /  0mm
22:45 39.3 °F /  4.1 °C 37.2 °F /  2.9 °C 29.73in /  1006.7hPa South 5.0mph /  8km/h 9.0mph /  14.5km/h 92% 0.00in /  0mm
22:55 40.0 °F /  4.4 °C 38.1 °F /  3.4 °C 29.73in /  1006.7hPa SSW 5.0mph /  8km/h 10.0mph /  16.1km/h 93% 0.00in /  0mm
23:00 39.6 °F /  4.2 °C 37.5 °F /  3.1 °C 29.73in /  1006.7hPa SSW 5.0mph /  8km/h 10.0mph /  16.1km/h 92% 0.00in /  0mm
23:05 39.2 °F /  4 °C 37.1 °F /  2.8 °C 29.73in /  1006.7hPa South 3.0mph /  4.8km/h 8.0mph /  12.9km/h 92% 0.00in /  0mm
23:15 38.9 °F /  3.8 °C 36.8 °F /  2.7 °C 29.72in /  1006.3hPa Calm   6.0mph /  9.7km/h 92% 0.00in /  0mm
23:20 38.8 °F /  3.8 °C 36.7 °F /  2.6 °C 29.72in /  1006.3hPa Calm     92% 0.00in /  0mm
23:25 38.8 °F /  3.8 °C 37.0 °F /  2.8 °C 29.72in /  1006.3hPa Calm     93% 0.00in /  0mm
23:35 38.6 °F /  3.7 °C 36.5 °F /  2.5 °C 29.72in /  1006.3hPa South 1.0mph /  1.6km/h 5.0mph /  8km/h 92% 0.00in /  0mm
23:40 39.4 °F /  4.1 °C 37.5 °F /  3.1 °C 29.72in /  1006.3hPa Calm   5.0mph /  8km/h 93% 0.00in /  0mm
23:45 40.0 °F /  4.4 °C 38.4 °F /  3.6 °C 29.72in /  1006.3hPa South 4.0mph /  6.4km/h 9.0mph /  14.5km/h 94% 0.00in /  0mm
23:55 40.7 °F /  4.8 °C 39.1 °F /  3.9 °C 29.72in /  1006.3hPa SSW 5.0mph /  8km/h 11.0mph /  17.7km/h 94% 0.00in /  0mm
Westford Weather
Compliments of Weather Underground

 
 
Current Radar Loop:

Copyright © WestfordWeather.net 2007-2014. All rights reserved.